createdAt,value
2023-04-26T00:00:30.658Z,7.76
2023-04-26T00:03:38.213Z,8.19
2023-04-26T00:06:44.268Z,7.83
2023-04-26T00:09:50.196Z,8.10
2023-04-26T00:12:56.640Z,8.17
2023-04-26T00:16:04.034Z,8.18
2023-04-26T00:19:12.326Z,7.90
2023-04-26T00:22:18.658Z,8.21
2023-04-26T00:25:24.662Z,7.98
2023-04-26T00:28:31.536Z,8.04
2023-04-26T00:31:39.117Z,7.89
2023-04-26T00:34:45.710Z,7.90
2023-04-26T00:37:52.377Z,7.74
2023-04-26T00:40:58.552Z,7.87
2023-04-26T00:44:04.809Z,7.82
2023-04-26T00:47:12.709Z,7.79
2023-04-26T00:50:19.378Z,7.63
2023-04-26T00:53:26.298Z,7.66
2023-04-26T00:56:32.482Z,7.48
2023-04-26T00:59:39.135Z,7.46
2023-04-26T01:05:53.736Z,6.86
2023-04-26T01:09:01.910Z,6.82
2023-04-26T01:12:09.303Z,7.19
2023-04-26T01:15:15.649Z,7.15
2023-04-26T01:18:23.107Z,7.16
2023-04-26T01:21:29.047Z,6.74
2023-04-26T01:24:37.541Z,6.91
2023-04-26T01:27:43.554Z,7.16
2023-04-26T01:30:49.955Z,7.02
2023-04-26T01:33:56.247Z,6.86
2023-04-26T01:37:02.637Z,7.10
2023-04-26T01:40:11.763Z,6.79
2023-04-26T01:43:19.987Z,7.03
2023-04-26T01:46:26.114Z,6.74
2023-04-26T01:49:32.740Z,6.85
2023-04-26T01:52:38.578Z,6.97
2023-04-26T01:55:46.242Z,6.96
2023-04-26T01:58:52.829Z,6.77
2023-04-26T02:01:59.469Z,6.54
2023-04-26T02:05:06.378Z,6.71
2023-04-26T02:08:12.732Z,6.74
2023-04-26T02:11:20.295Z,6.41
2023-04-26T02:14:26.837Z,6.66
2023-04-26T02:17:33.220Z,6.52
2023-04-26T02:20:39.448Z,6.81
2023-04-26T02:23:45.945Z,6.28
2023-04-26T02:26:54.747Z,6.57
2023-04-26T02:30:01.412Z,6.39
2023-04-26T02:33:07.472Z,6.61
2023-04-26T02:36:13.512Z,6.49
2023-04-26T02:39:19.540Z,6.41
2023-04-26T02:42:27.627Z,6.60
2023-04-26T02:45:33.848Z,6.61
2023-04-26T02:48:40.158Z,6.80
2023-04-26T02:51:46.094Z,6.81
2023-04-26T02:54:52.463Z,7.10
2023-04-26T02:58:00.111Z,7.06
2023-04-26T03:01:06.513Z,6.87
2023-04-26T03:04:13.095Z,7.11
2023-04-26T03:07:19.699Z,6.70
2023-04-26T03:10:25.652Z,6.92
2023-04-26T03:13:33.243Z,6.90
2023-04-26T03:16:43.658Z,7.05
2023-04-26T03:19:50.126Z,6.74
2023-04-26T03:22:56.673Z,6.91
2023-04-26T03:26:03.740Z,7.02
2023-04-26T03:29:12.569Z,7.00
2023-04-26T03:32:18.917Z,6.88
2023-04-26T03:35:25.019Z,6.75
2023-04-26T03:38:31.706Z,6.67
2023-04-26T03:41:39.719Z,6.43
2023-04-26T03:44:47.313Z,6.97
2023-04-26T03:47:53.743Z,7.01
2023-04-26T03:50:59.830Z,7.19
2023-04-26T03:54:06.538Z,6.81
2023-04-26T03:57:12.746Z,6.57
2023-04-26T04:00:20.205Z,6.54
2023-04-26T04:03:26.461Z,6.91
2023-04-26T04:06:33.397Z,7.26
2023-04-26T04:09:39.397Z,7.18
2023-04-26T04:12:45.415Z,7.29
2023-04-26T04:15:53.032Z,7.32
2023-04-26T04:18:59.429Z,7.23
2023-04-26T04:22:05.923Z,7.00
2023-04-26T04:25:12.261Z,7.20
2023-04-26T04:28:18.755Z,7.63
2023-04-26T04:31:26.644Z,7.60
2023-04-26T04:34:36.118Z,7.84
2023-04-26T04:37:44.221Z,8.04
2023-04-26T04:40:51.217Z,7.73
2023-04-26T04:43:57.271Z,7.82
2023-04-26T04:47:05.311Z,7.38
2023-04-26T04:50:11.963Z,7.23
2023-04-26T04:53:18.778Z,7.38
2023-04-26T04:56:26.192Z,7.57
2023-04-26T04:59:33.414Z,7.63
2023-04-26T05:02:41.471Z,7.31
2023-04-26T05:05:47.688Z,7.94
2023-04-26T05:08:53.872Z,8.17
2023-04-26T05:11:59.864Z,8.30
2023-04-26T05:15:06.941Z,8.01
2023-04-26T05:18:14.620Z,8.37
2023-04-26T05:21:21.130Z,8.49
2023-04-26T05:24:27.424Z,8.52
2023-04-26T05:27:33.443Z,8.58
2023-04-26T05:30:39.831Z,8.62
2023-04-26T05:33:47.710Z,8.52
2023-04-26T05:36:53.809Z,8.76
2023-04-26T05:40:00.267Z,8.59
2023-04-26T05:43:06.548Z,8.76
2023-04-26T05:46:12.595Z,8.87
2023-04-26T05:49:19.881Z,8.92
2023-04-26T05:52:25.976Z,9.07
2023-04-26T05:55:32.335Z,9.11
2023-04-26T05:58:38.755Z,8.79
2023-04-26T06:01:45.207Z,8.79
2023-04-26T06:04:53.480Z,8.98
2023-04-26T06:08:01.556Z,9.16
2023-04-26T06:11:07.861Z,9.28
2023-04-26T06:14:28.830Z,8.64
2023-04-26T06:17:37.002Z,9.05
2023-04-26T06:20:45.150Z,9.14
2023-04-26T06:23:51.498Z,9.13
2023-04-26T06:26:58.117Z,9.20
2023-04-26T06:30:04.161Z,9.08
2023-04-26T06:33:10.381Z,9.30
2023-04-26T06:36:17.913Z,9.31
2023-04-26T06:39:23.936Z,9.15
2023-04-26T06:42:29.858Z,8.99
2023-04-26T06:45:36.297Z,8.99
2023-04-26T06:48:42.327Z,8.85
2023-04-26T06:51:49.753Z,8.69
2023-04-26T06:54:57.314Z,8.98
2023-04-26T06:58:03.932Z,9.43
2023-04-26T07:01:10.162Z,9.98
2023-04-26T07:04:18.788Z,10.01
2023-04-26T07:07:26.471Z,10.22
2023-04-26T07:10:33.529Z,10.32
2023-04-26T07:13:40.364Z,10.36
2023-04-26T07:16:46.564Z,10.32
2023-04-26T07:19:54.979Z,9.58
2023-04-26T07:23:03.860Z,10.24
2023-04-26T07:26:12.350Z,9.53
2023-04-26T07:29:19.142Z,10.18
2023-04-26T07:32:25.528Z,10.36
2023-04-26T07:35:32.145Z,9.61
2023-04-26T07:38:39.756Z,9.37
2023-04-26T07:41:46.071Z,9.39
2023-04-26T07:44:52.472Z,9.81
2023-04-26T07:47:58.914Z,9.88
2023-04-26T07:51:12.817Z,9.69
2023-04-26T07:54:20.504Z,10.00
2023-04-26T07:57:27.075Z,10.15
2023-04-26T08:00:33.279Z,9.63
2023-04-26T08:03:39.923Z,9.66
2023-04-26T08:06:48.758Z,9.87
2023-04-26T08:09:56.508Z,10.07
2023-04-26T08:13:03.598Z,10.08
2023-04-26T08:16:09.883Z,10.11
2023-04-26T08:19:16.134Z,10.49
2023-04-26T08:22:22.706Z,11.16
2023-04-26T08:25:30.793Z,10.95
2023-04-26T08:28:37.135Z,11.49
2023-04-26T08:31:43.626Z,11.20
2023-04-26T08:34:50.153Z,10.50
2023-04-26T08:37:56.861Z,10.93
2023-04-26T08:41:05.885Z,11.45
2023-04-26T08:44:12.839Z,11.46
2023-04-26T08:47:20.729Z,11.25
2023-04-26T08:50:26.984Z,11.25
2023-04-26T08:53:36.007Z,11.94
2023-04-26T08:56:44.343Z,10.82
2023-04-26T08:59:51.616Z,10.83
2023-04-26T09:02:58.020Z,11.02
2023-04-26T09:06:04.964Z,11.06
2023-04-26T09:09:14.745Z,11.31
2023-04-26T09:12:22.550Z,11.11
2023-04-26T09:15:28.638Z,11.02
2023-04-26T09:18:34.938Z,10.76
2023-04-26T09:21:45.591Z,10.59
2023-04-26T09:24:53.338Z,10.47
2023-04-26T09:28:01.825Z,10.81
2023-04-26T09:31:08.174Z,10.71
2023-04-26T09:34:15.952Z,10.76
2023-04-26T09:37:22.301Z,11.11
2023-04-26T09:40:31.102Z,10.83
2023-04-26T09:43:40.732Z,11.83
2023-04-26T09:46:59.179Z,11.01
2023-04-26T09:50:06.461Z,10.93
2023-04-26T09:53:12.514Z,12.07
2023-04-26T09:56:20.043Z,12.87
2023-04-26T09:59:41.161Z,11.82
2023-04-26T10:02:48.661Z,11.88
2023-04-26T10:05:56.002Z,12.11
2023-04-26T10:09:05.394Z,12.21
2023-04-26T10:12:13.222Z,12.40
2023-04-26T10:15:20.880Z,11.63
2023-04-26T10:18:26.957Z,13.17
2023-04-26T10:21:39.238Z,12.83
2023-04-26T10:24:46.407Z,12.83
2023-04-26T10:27:53.332Z,12.28
2023-04-26T10:31:01.888Z,12.03
2023-04-26T10:34:21.271Z,12.08
2023-04-26T10:37:27.819Z,13.04
2023-04-26T10:40:35.829Z,12.39
2023-04-26T10:43:42.993Z,13.41
2023-04-26T10:46:53.071Z,13.70
2023-04-26T10:50:07.511Z,13.35
2023-04-26T10:53:14.685Z,13.78
2023-04-26T10:56:54.119Z,13.33
2023-04-26T11:00:21.328Z,13.66
2023-04-26T11:03:32.076Z,12.53
2023-04-26T11:06:51.713Z,13.58
2023-04-26T11:10:01.732Z,13.31
2023-04-26T11:13:08.533Z,13.56
2023-04-26T11:16:16.461Z,13.59
2023-04-26T11:19:24.321Z,12.21
2023-04-26T11:22:30.479Z,13.36
2023-04-26T11:25:37.156Z,12.89
2023-04-26T11:28:44.629Z,12.11
2023-04-26T11:31:55.246Z,12.79
2023-04-26T11:35:03.886Z,12.47
2023-04-26T11:38:10.939Z,12.30
2023-04-26T11:41:17.438Z,12.53
2023-04-26T11:44:23.410Z,12.31
2023-04-26T11:47:31.103Z,12.45
2023-04-26T11:50:39.554Z,12.11
2023-04-26T11:53:45.977Z,12.71
2023-04-26T11:56:52.289Z,12.73
2023-04-26T12:00:10.839Z,11.85
2023-04-26T12:03:17.536Z,11.39
2023-04-26T12:06:33.033Z,11.08
2023-04-26T12:09:42.990Z,11.59
2023-04-26T12:12:51.002Z,12.26
2023-04-26T12:15:57.514Z,11.12
2023-04-26T12:19:07.854Z,11.18
2023-04-26T12:22:22.594Z,10.59
2023-04-26T12:25:29.246Z,10.33
2023-04-26T12:28:35.416Z,10.19
2023-04-26T12:31:41.819Z,10.95
2023-04-26T12:34:48.098Z,10.33
2023-04-26T12:37:57.106Z,10.06
2023-04-26T12:41:03.630Z,9.99
2023-04-26T12:44:10.027Z,9.67
2023-04-26T12:47:16.365Z,9.62
2023-04-26T12:50:23.070Z,9.46
2023-04-26T12:53:31.088Z,9.46
2023-04-26T12:56:40.847Z,9.39
2023-04-26T12:59:47.307Z,9.46
2023-04-26T13:02:53.456Z,9.37
2023-04-26T13:05:59.446Z,9.44
2023-04-26T13:09:08.254Z,9.56
2023-04-26T13:12:14.566Z,9.44
2023-04-26T13:15:21.685Z,9.15
2023-04-26T13:18:28.090Z,9.59
2023-04-26T13:21:34.354Z,9.65
2023-04-26T13:24:41.847Z,9.48
2023-04-26T13:27:48.141Z,9.72
2023-04-26T13:30:54.371Z,9.49
2023-04-26T13:34:00.869Z,9.16
2023-04-26T13:37:07.203Z,9.21
2023-04-26T13:40:14.958Z,9.51
2023-04-26T13:43:20.926Z,9.39
2023-04-26T13:46:27.417Z,9.18
2023-04-26T13:49:33.275Z,8.98
2023-04-26T13:52:39.542Z,8.47
2023-04-26T13:55:47.428Z,8.65
2023-04-26T13:58:57.532Z,8.77
2023-04-26T14:02:03.966Z,8.63
2023-04-26T14:05:28.619Z,8.75
2023-04-26T14:08:35.631Z,8.67
2023-04-26T14:11:43.354Z,9.03
2023-04-26T14:14:49.953Z,9.02
2023-04-26T14:17:56.319Z,9.01
2023-04-26T14:21:02.686Z,9.12
2023-04-26T14:24:09.249Z,9.28
2023-04-26T14:27:16.633Z,8.96
2023-04-26T14:30:24.527Z,9.03
2023-04-26T14:33:31.037Z,9.27
2023-04-26T14:36:37.551Z,9.28
2023-04-26T14:39:44.376Z,9.11
2023-04-26T14:42:52.318Z,9.35
2023-04-26T14:45:59.056Z,9.39
2023-04-26T14:49:05.458Z,9.50
2023-04-26T14:52:11.852Z,9.70
2023-04-26T14:55:23.607Z,10.00
2023-04-26T14:58:31.289Z,9.57
2023-04-26T15:01:37.509Z,10.05
2023-04-26T15:04:43.897Z,9.60
2023-04-26T15:07:50.158Z,9.62
2023-04-26T15:10:56.472Z,9.90
2023-04-26T15:14:04.486Z,9.56
2023-04-26T15:17:10.572Z,9.71
2023-04-26T15:20:17.228Z,9.87
2023-04-26T15:23:23.591Z,9.91
2023-04-26T15:26:31.146Z,9.53
2023-04-26T15:29:38.957Z,10.00
2023-04-26T15:32:49.155Z,10.02
2023-04-26T15:35:56.350Z,9.51
2023-04-26T15:39:02.477Z,9.74
2023-04-26T15:42:08.478Z,9.69
2023-04-26T15:45:15.942Z,9.41
2023-04-26T15:48:22.077Z,9.49
2023-04-26T15:51:28.260Z,9.71
2023-04-26T15:54:34.476Z,9.55
2023-04-26T15:57:42.839Z,9.52
2023-04-26T16:00:50.309Z,9.27
2023-04-26T16:03:56.774Z,9.30
2023-04-26T16:07:03.244Z,9.23
2023-04-26T16:10:11.128Z,9.15
2023-04-26T16:13:17.418Z,9.18
2023-04-26T16:16:25.440Z,9.17
2023-04-26T16:19:32.069Z,9.32
2023-04-26T16:22:38.337Z,9.11
2023-04-26T16:25:44.888Z,9.10
2023-04-26T16:28:51.295Z,8.95
2023-04-26T16:31:59.494Z,8.89
2023-04-26T16:35:06.637Z,8.98
2023-04-26T16:38:13.017Z,8.97
2023-04-26T16:41:19.465Z,8.87
2023-04-26T16:44:25.888Z,9.11
2023-04-26T16:47:35.418Z,8.98
2023-04-26T16:50:41.922Z,8.99
2023-04-26T16:53:48.280Z,8.97
2023-04-26T16:56:54.663Z,8.99
2023-04-26T17:00:00.992Z,8.93
2023-04-26T17:03:08.945Z,8.88
2023-04-26T17:06:15.007Z,8.78
2023-04-26T17:09:21.489Z,8.90
2023-04-26T17:12:27.854Z,8.79
2023-04-26T17:15:34.803Z,8.75
2023-04-26T17:18:42.462Z,8.82
2023-04-26T17:21:48.659Z,8.74
2023-04-26T17:24:54.873Z,8.58
2023-04-26T17:28:01.330Z,8.74
2023-04-26T17:31:07.550Z,8.66
2023-04-26T17:34:16.143Z,8.67
2023-04-26T17:37:22.882Z,8.88
2023-04-26T17:40:29.231Z,8.71
2023-04-26T17:43:35.487Z,8.72
2023-04-26T17:46:41.980Z,8.63
2023-04-26T17:49:49.784Z,8.55
2023-04-26T17:52:56.346Z,8.53
2023-04-26T17:56:07.242Z,8.45
2023-04-26T17:59:13.462Z,8.62
2023-04-26T18:02:19.978Z,8.49
2023-04-26T18:05:28.117Z,8.47
2023-04-26T18:08:34.487Z,8.39
2023-04-26T18:11:40.857Z,8.36
2023-04-26T18:14:47.100Z,8.41
2023-04-26T18:17:53.352Z,8.17
2023-04-26T18:21:00.842Z,8.25
2023-04-26T18:24:07.525Z,8.37
2023-04-26T18:27:14.218Z,8.32
2023-04-26T18:30:20.567Z,8.38
2023-04-26T18:33:26.940Z,8.37
2023-04-26T18:36:34.190Z,8.22
2023-04-26T18:39:40.349Z,8.49
2023-04-26T18:42:46.318Z,8.30
2023-04-26T18:45:52.799Z,8.10
2023-04-26T18:48:59.155Z,8.21
2023-04-26T18:52:08.854Z,8.15
2023-04-26T18:55:14.959Z,8.12
2023-04-26T18:58:21.173Z,8.01
2023-04-26T19:01:27.625Z,7.92
2023-04-26T19:04:33.988Z,7.80
2023-04-26T19:07:42.071Z,7.79
2023-04-26T19:10:48.399Z,7.65
2023-04-26T19:13:54.535Z,7.66
2023-04-26T19:17:00.982Z,7.65
2023-04-26T19:20:10.429Z,7.54
2023-04-26T19:23:18.241Z,7.85
2023-04-26T19:26:24.688Z,7.51
2023-04-26T19:29:31.080Z,7.61
2023-04-26T19:32:37.409Z,7.53
2023-04-26T19:35:43.583Z,7.36
2023-04-26T19:38:51.308Z,7.52
2023-04-26T19:41:57.681Z,7.65
2023-04-26T19:45:03.623Z,7.57
2023-04-26T19:48:10.939Z,7.57
2023-04-26T19:51:17.824Z,7.56
2023-04-26T19:54:25.181Z,7.44
2023-04-26T19:57:31.359Z,7.62
2023-04-26T20:00:38.815Z,7.37
2023-04-26T20:03:45.478Z,7.39
2023-04-26T20:06:51.989Z,7.41
2023-04-26T20:09:59.447Z,7.35
2023-04-26T20:13:05.666Z,7.13
2023-04-26T20:16:12.401Z,7.32
2023-04-26T20:19:18.842Z,7.00
2023-04-26T20:22:25.101Z,7.10
2023-04-26T20:25:33.081Z,6.83
2023-04-26T20:28:39.989Z,6.77
2023-04-26T20:31:46.534Z,6.85
2023-04-26T20:34:52.754Z,6.91
2023-04-26T20:37:58.941Z,7.06
2023-04-26T20:41:06.307Z,6.70
2023-04-26T20:44:12.380Z,6.55
2023-04-26T20:47:18.661Z,6.62
2023-04-26T20:50:25.032Z,6.73
2023-04-26T20:53:31.154Z,6.62
2023-04-26T20:56:38.666Z,6.57
2023-04-26T20:59:44.897Z,6.71
2023-04-26T21:02:51.305Z,6.76
2023-04-26T21:05:57.606Z,6.85
2023-04-26T21:09:05.449Z,6.53
2023-04-26T21:12:13.072Z,6.37
2023-04-26T21:15:19.477Z,6.40
2023-04-26T21:18:25.829Z,6.57
2023-04-26T21:21:32.742Z,6.57
2023-04-26T21:24:39.230Z,6.49
2023-04-26T21:27:47.266Z,6.45
2023-04-26T21:31:04.476Z,6.47
2023-04-26T21:34:10.868Z,6.31
2023-04-26T21:37:17.445Z,6.27
2023-04-26T21:40:23.323Z,6.23
2023-04-26T21:43:30.758Z,6.23
2023-04-26T21:46:36.781Z,6.13
2023-04-26T21:49:42.749Z,5.93
2023-04-26T21:52:48.845Z,5.71
2023-04-26T21:55:55.843Z,5.72
2023-04-26T21:59:04.766Z,5.86
2023-04-26T22:02:10.848Z,5.67
2023-04-26T22:05:16.914Z,5.53
2023-04-26T22:08:23.085Z,5.60
2023-04-26T22:11:29.174Z,5.53
2023-04-26T22:14:36.594Z,5.55
2023-04-26T22:17:42.959Z,5.44
2023-04-26T22:20:49.251Z,5.46
2023-04-26T22:23:55.534Z,5.92
2023-04-26T22:27:02.482Z,6.15
2023-04-26T22:30:24.108Z,6.11
2023-04-26T22:33:31.651Z,6.22
2023-04-26T22:36:37.431Z,6.19
2023-04-26T22:39:43.561Z,6.26
2023-04-26T22:42:49.699Z,6.15
2023-04-26T22:45:57.337Z,5.70
2023-04-26T22:49:03.253Z,6.02
2023-04-26T22:52:14.407Z,6.12
2023-04-26T22:55:26.978Z,6.08
2023-04-26T22:58:33.216Z,6.24
2023-04-26T23:01:40.558Z,6.08
2023-04-26T23:04:47.344Z,6.05
2023-04-26T23:07:53.283Z,6.26
2023-04-26T23:10:59.306Z,6.06
2023-04-26T23:14:07.206Z,6.00
2023-04-26T23:17:15.184Z,5.91
2023-04-26T23:20:21.409Z,6.04
2023-04-26T23:23:28.363Z,5.58
2023-04-26T23:26:34.268Z,5.64
2023-04-26T23:29:40.604Z,5.75
2023-04-26T23:32:48.133Z,5.89
2023-04-26T23:35:56.924Z,5.82
2023-04-26T23:39:03.905Z,5.87
2023-04-26T23:42:09.992Z,5.63
2023-04-26T23:45:17.047Z,5.87
2023-04-26T23:48:24.401Z,6.07
2023-04-26T23:51:31.484Z,5.92
2023-04-26T23:54:37.902Z,5.98
2023-04-26T23:57:43.976Z,5.62
